• Join FlightAware (Why Join?)
  • Login
  • US Flag 
10:29PM EDT


 

Airport Tracker/Info


-or-


 

Live Flight TrackerFlight Track Log ✈ N789PR ✈ 30-Apr-2014 ✈ KSUA - KORL

Flight Track Log - Related Links

Times and Time Zones

All times are in EDT time to prevent confusion due to time zone crossing. See the N789PR flight status page for this flight to view local times or setup timezone preferences in your user account.

Time Position Orientation Groundspeed Altitude Reporting Facility
EDT Latitude Longitude Course Direction KTS MPH feet Rate Location/Type
10:57AM 27.2114 -80.2200 287° West 129 148 1,800  Level Miami Center
10:58AM 27.2208 -80.2553 287° West 129 148 2,300 600 Climbing Miami Center
10:59AM 27.2306 -80.2858 290° West 117 135 3,000 660 Climbing Miami Center
11:00AM 27.2383 -80.3164 286° West 112 129 3,700 480 Climbing Miami Center
11:01AM 27.2436 -80.3517 280° West 106 122 4,000 300 Climbing Miami Center
11:02AM 27.2447 -80.3983 272° West 126 145 4,400 480 Climbing Miami Center
11:03AM 27.2481 -80.4311 277° West 121 139 5,000 540 Climbing Miami Center
11:04AM 27.2472 -80.4661 268° West 121 139 5,500 480 Climbing Miami Center
11:05AM 27.2694 -80.4925 313° West 116 133 6,000 240 Climbing Miami Center
11:06AM 27.3042 -80.5242 321° Northwest 138 159 6,000  Level Miami Center
11:08AM 27.3714 -80.5869 320° Northwest 154 177 6,000  Level Miami Center
11:09AM 27.4019 -80.6136 322° Northwest 154 177 6,000  Level Miami Center
11:10AM 27.4367 -80.6453 321° Northwest 159 183 6,000  Level Miami Center
11:11AM 27.4733 -80.6792 321° Northwest 159 183 6,000  Level Miami Center
11:12AM 27.5081 -80.7108 321° Northwest 159 183 6,000  Level Miami Center
11:13AM 27.5406 -80.7422 319° Northwest 159 183 6,000  Level Miami Center
11:14AM 27.5711 -80.7692 322° Northwest 159 183 6,000 -300 Level Miami Center
11:15AM 27.6100 -80.8033 322° Northwest 159 183 5,500 -540 Descending Miami Center
11:16AM 27.6406 -80.8300 322° Northwest 159 183 5,000 -300 Descending Miami Center
11:17AM 27.6731 -80.8642 317° Northwest 159 183 5,000  Level Miami Center
11:18AM 27.7075 -80.8933 323° Northwest 159 183 5,000  Level Miami Center
11:19AM 27.7422 -80.9228 323° Northwest 159 183 5,000  Level Miami Center
11:20AM 27.7728 -80.9472 325° Northwest 154 177 5,000  Level Miami Center
11:21AM 27.8033 -80.9767 320° Northwest 148 170 5,000  Level Miami Center
11:22AM 27.8500 -81.0333 313° West 154 177 5,000  Level Orlando TRACON
11:23AM 27.8833 -81.0667 319° Northwest 147 169 5,000  Level Orlando TRACON
11:24AM 27.9167 -81.0833 336° Northwest 150 173 5,000  Level Orlando TRACON
11:26AM 28.0000 -81.1333 336° Northwest 159 183 5,000 -60 Level Orlando TRACON
11:27AM 28.0333 -81.1500 336° Northwest 156 180 4,900 -480 Descending Orlando TRACON
11:28AM 28.0500 -81.2000 291° West 145 167 4,100 -480 Descending Orlando TRACON
11:29AM 28.0667 -81.2333 300° West 137 158 3,900 -120 Descending Orlando TRACON
11:30AM 28.0833 -81.2667 300° West 147 169 3,900  Level Orlando TRACON
11:31AM 28.1000 -81.3167 291° West 144 166 3,900 -300 Level Orlando TRACON
11:32AM 28.1333 -81.3500 319° Northwest 150 173 3,400 -540 Descending Orlando TRACON
11:33AM 28.1500 -81.3833 300° West 153 176 2,900 -240 Descending Orlando TRACON
11:34AM 28.1667 -81.4333 291° West 146 168 3,000  Climbing Orlando TRACON
11:35AM 28.1833 -81.4667 300° West 138 159 3,000  Level Orlando TRACON
11:36AM 28.2167 -81.5000 319° Northwest 147 169 3,000  Level Orlando TRACON
11:37AM 28.2500 -81.5167 336° Northwest 140 161 3,000  Level Orlando TRACON
11:38AM 28.2833 -81.5500 319° Northwest 144 166 3,000 -180 Level Orlando TRACON
11:39AM 28.3167 -81.5500 360° North 150 173 2,700 -540 Descending Orlando TRACON
11:40AM 28.3667 -81.5500 360° North 157 181 1,900 -360 Descending Orlando TRACON
11:41AM 28.4167 -81.5500 360° North 150 173 2,000  Climbing Orlando TRACON
11:42AM 28.4500 -81.5333 24° Northeast 153 176 2,000  Level Orlando TRACON
11:43AM 28.4833 -81.5000 41° Northeast 150 173 2,000  Level Orlando TRACON
11:44AM 28.5000 -81.4667 60° Northeast 143 165 2,000 -240 Level Orlando TRACON
11:45AM 28.5167 -81.4167 69° East 143 165 1,600 -600 Descending Orlando TRACON
11:46AM 28.5333 -81.3833 60° Northeast 127 146 900 -720 Descending Orlando TRACON